createdAt,value
2018-09-22T00:00:06.424Z,13.23
2018-09-22T00:01:06.415Z,13.05
2018-09-22T00:02:06.400Z,12.97
2018-09-22T00:03:06.386Z,13.03
2018-09-22T00:04:06.378Z,12.86
2018-09-22T00:05:06.362Z,12.83
2018-09-22T00:06:06.364Z,12.86
2018-09-22T00:07:06.345Z,13.00
2018-09-22T00:08:06.333Z,13.03
2018-09-22T00:09:06.325Z,13.10
2018-09-22T00:10:06.308Z,13.15
2018-09-22T00:11:06.298Z,13.19
2018-09-22T00:12:06.292Z,13.19
2018-09-22T00:13:06.277Z,13.17
2018-09-22T00:14:06.268Z,13.22
2018-09-22T00:15:06.260Z,13.30
2018-09-22T00:16:06.251Z,13.26
2018-09-22T00:17:06.232Z,13.26
2018-09-22T00:18:06.227Z,13.39
2018-09-22T00:19:06.217Z,13.33
2018-09-22T00:20:06.205Z,13.41
2018-09-22T00:21:06.191Z,13.39
2018-09-22T00:22:06.181Z,13.46
2018-09-22T00:23:06.171Z,13.39
2018-09-22T00:24:06.166Z,13.42
2018-09-22T00:25:06.149Z,13.26
2018-09-22T00:26:06.140Z,13.22
2018-09-22T00:27:06.131Z,13.14
2018-09-22T00:28:06.119Z,13.20
2018-09-22T00:29:06.106Z,13.22
2018-09-22T00:30:06.094Z,13.14
2018-09-22T00:31:06.080Z,13.15
2018-09-22T00:32:06.074Z,13.29
2018-09-22T00:33:06.060Z,13.29
2018-09-22T00:34:06.049Z,13.19
2018-09-22T00:35:06.039Z,13.29
2018-09-22T00:36:06.031Z,13.25
2018-09-22T00:37:06.020Z,13.30
2018-09-22T00:38:06.009Z,13.36
2018-09-22T00:39:05.995Z,13.42
2018-09-22T00:40:05.988Z,13.51
2018-09-22T00:41:05.978Z,13.59
2018-09-22T00:42:05.975Z,13.63
2018-09-22T00:43:05.956Z,13.66
2018-09-22T00:44:05.942Z,13.75
2018-09-22T00:45:05.933Z,13.71
2018-09-22T00:46:05.925Z,13.78
2018-09-22T00:47:05.904Z,13.81
2018-09-22T00:48:05.896Z,13.75
2018-09-22T00:49:05.886Z,13.63
2018-09-22T00:50:05.879Z,13.59
2018-09-22T00:51:05.868Z,13.63
2018-09-22T00:52:05.859Z,13.62
2018-09-22T00:53:05.845Z,13.66
2018-09-22T00:54:05.836Z,13.66
2018-09-22T00:55:05.826Z,13.60
2018-09-22T00:56:05.810Z,13.59
2018-09-22T00:57:05.798Z,13.49
2018-09-22T00:58:05.793Z,13.39
2018-09-22T00:59:05.783Z,13.23
2018-09-22T01:00:05.775Z,13.11
2018-09-22T01:01:05.757Z,13.10
2018-09-22T01:02:05.741Z,13.01
2018-09-22T01:03:05.736Z,13.01
2018-09-22T01:04:05.726Z,13.00
2018-09-22T01:05:05.717Z,12.86
2018-09-22T01:06:05.705Z,12.74
2018-09-22T01:07:05.693Z,12.41
2018-09-22T01:08:05.684Z,12.49
2018-09-22T01:09:05.677Z,12.47
2018-09-22T01:10:05.661Z,12.42
2018-09-22T01:11:05.655Z,12.56
2018-09-22T01:12:05.636Z,12.41
2018-09-22T01:13:05.634Z,12.54
2018-09-22T01:14:05.614Z,12.62
2018-09-22T01:15:05.613Z,12.75
2018-09-22T01:16:05.592Z,12.83
2018-09-22T01:17:05.591Z,12.83
2018-09-22T01:18:05.577Z,12.87
2018-09-22T01:19:05.562Z,12.92
2018-09-22T01:20:05.551Z,13.03
2018-09-22T01:21:05.540Z,13.01
2018-09-22T01:22:05.527Z,13.04
2018-09-22T01:23:05.517Z,13.07
2018-09-22T01:24:05.506Z,13.10
2018-09-22T01:25:05.493Z,13.17
2018-09-22T01:26:05.491Z,13.28
2018-09-22T01:27:05.475Z,13.22
2018-09-22T01:28:05.465Z,13.29
2018-09-22T01:29:05.449Z,13.30
2018-09-22T01:30:05.440Z,13.23
2018-09-22T01:31:05.428Z,13.30
2018-09-22T01:32:05.422Z,13.25
2018-09-22T01:33:05.404Z,13.25
2018-09-22T01:34:05.394Z,13.26
2018-09-22T01:35:05.389Z,13.28
2018-09-22T01:36:05.376Z,13.25
2018-09-22T01:37:05.360Z,13.30
2018-09-22T01:38:05.353Z,13.28
2018-09-22T01:39:05.342Z,13.26
2018-09-22T01:40:05.336Z,13.23
2018-09-22T01:41:05.324Z,13.25
2018-09-22T01:42:05.305Z,13.28
2018-09-22T01:43:05.307Z,13.15
2018-09-22T01:44:05.285Z,12.95
2018-09-22T01:45:05.276Z,12.90
2018-09-22T01:46:05.265Z,12.82
2018-09-22T01:47:05.258Z,12.83
2018-09-22T01:48:05.246Z,12.75
2018-09-22T01:49:05.228Z,12.57
2018-09-22T01:50:05.216Z,12.67
2018-09-22T01:51:05.212Z,12.64
2018-09-22T01:52:05.202Z,12.60
2018-09-22T01:53:05.186Z,12.68
2018-09-22T01:54:05.185Z,12.52
2018-09-22T01:55:05.165Z,12.41
2018-09-22T01:56:05.155Z,12.32
2018-09-22T01:57:05.141Z,12.28
2018-09-22T01:58:05.140Z,12.47
2018-09-22T01:59:05.121Z,12.50
2018-09-22T02:00:05.115Z,12.50
2018-09-22T02:01:05.095Z,12.56
2018-09-22T02:02:05.087Z,12.59
2018-09-22T02:03:05.080Z,12.54
2018-09-22T02:04:05.061Z,12.65
2018-09-22T02:05:05.051Z,12.62
2018-09-22T02:06:05.046Z,12.60
2018-09-22T02:07:05.034Z,12.50
2018-09-22T02:08:05.021Z,12.42
2018-09-22T02:09:05.007Z,12.31
2018-09-22T02:10:04.998Z,12.29
2018-09-22T02:11:04.991Z,12.32
2018-09-22T02:12:04.978Z,12.27
2018-09-22T02:13:04.964Z,12.16
2018-09-22T02:14:04.952Z,12.13
2018-09-22T02:15:04.942Z,12.05
2018-09-22T02:16:04.930Z,11.95
2018-09-22T02:17:04.928Z,11.98
2018-09-22T02:18:04.912Z,11.98
2018-09-22T02:19:04.898Z,11.85
2018-09-22T02:20:04.884Z,12.01
2018-09-22T02:21:04.875Z,11.91
2018-09-22T02:22:04.863Z,12.04
2018-09-22T02:23:04.853Z,12.02
2018-09-22T02:24:04.842Z,11.96
2018-09-22T02:25:04.827Z,11.96
2018-09-22T02:26:04.818Z,12.01
2018-09-22T02:27:04.802Z,12.05
2018-09-22T02:28:04.796Z,12.12
2018-09-22T02:29:04.782Z,12.13
2018-09-22T02:30:04.786Z,12.02
2018-09-22T02:31:04.763Z,12.05
2018-09-22T02:32:04.745Z,11.98
2018-09-22T02:33:04.740Z,11.90
2018-09-22T02:34:04.724Z,11.80
2018-09-22T02:35:04.714Z,11.67
2018-09-22T02:36:04.707Z,11.65
2018-09-22T02:37:04.691Z,11.62
2018-09-22T02:38:04.678Z,11.54
2018-09-22T02:39:04.670Z,11.55
2018-09-22T02:40:04.658Z,11.60
2018-09-22T02:41:04.645Z,11.62
2018-09-22T02:42:04.633Z,11.60
2018-09-22T02:43:04.632Z,11.60
2018-09-22T02:44:04.617Z,11.54
2018-09-22T02:45:04.605Z,11.54
2018-09-22T02:46:04.593Z,11.44
2018-09-22T02:47:04.578Z,11.47
2018-09-22T02:48:04.565Z,11.40
2018-09-22T02:49:04.552Z,11.43
2018-09-22T02:50:04.542Z,11.36
2018-09-22T02:51:04.539Z,11.35
2018-09-22T02:52:04.518Z,11.40
2018-09-22T02:53:04.509Z,11.39
2018-09-22T02:54:04.490Z,11.36
2018-09-22T02:55:04.483Z,11.32
2018-09-22T02:56:04.478Z,11.27
2018-09-22T02:57:04.459Z,11.32
2018-09-22T02:58:04.443Z,11.39
2018-09-22T02:59:04.441Z,11.32
2018-09-22T03:00:04.432Z,11.25
2018-09-22T03:01:04.417Z,11.32
2018-09-22T03:02:04.403Z,11.32
2018-09-22T03:03:04.393Z,11.28
2018-09-22T03:04:04.375Z,11.32
2018-09-22T03:05:04.369Z,11.35
2018-09-22T03:06:04.363Z,11.25
2018-09-22T03:07:04.352Z,11.27
2018-09-22T03:08:04.336Z,11.18
2018-09-22T03:09:04.326Z,11.28
2018-09-22T03:10:04.370Z,11.25
2018-09-22T03:11:04.298Z,11.17
2018-09-22T03:12:04.308Z,11.06
2018-09-22T03:13:04.307Z,11.07
2018-09-22T03:14:04.261Z,11.06
2018-09-22T03:15:04.250Z,11.06
2018-09-22T03:16:04.238Z,11.04
2018-09-22T03:17:04.226Z,11.04
2018-09-22T03:18:04.210Z,10.89
2018-09-22T03:19:04.202Z,10.71
2018-09-22T03:20:04.188Z,10.74
2018-09-22T03:21:04.178Z,10.78
2018-09-22T03:22:04.165Z,10.68
2018-09-22T03:23:04.160Z,10.66
2018-09-22T03:24:04.140Z,10.74
2018-09-22T03:25:04.133Z,10.71
2018-09-22T03:26:04.121Z,10.71
2018-09-22T03:27:04.109Z,10.61
2018-09-22T03:28:04.100Z,10.66
2018-09-22T03:29:04.085Z,10.71
2018-09-22T03:30:04.077Z,10.66
2018-09-22T03:31:04.067Z,10.81
2018-09-22T03:32:04.050Z,10.86
2018-09-22T03:33:04.041Z,10.78
2018-09-22T03:34:04.028Z,10.81
2018-09-22T03:35:04.018Z,10.78
2018-09-22T03:36:04.002Z,10.70
2018-09-22T03:37:03.988Z,10.68
2018-09-22T03:38:03.977Z,10.70
2018-09-22T03:39:03.963Z,10.70
2018-09-22T03:40:03.953Z,10.70
2018-09-22T03:41:03.943Z,10.51
2018-09-22T03:42:03.929Z,10.66
2018-09-22T03:43:03.924Z,10.63
2018-09-22T03:44:03.902Z,10.64
2018-09-22T03:45:03.889Z,10.60
2018-09-22T03:46:03.880Z,10.64
2018-09-22T03:47:03.867Z,10.70
2018-09-22T03:48:03.854Z,10.70
2018-09-22T03:49:03.843Z,10.70
2018-09-22T03:50:03.827Z,10.76
2018-09-22T03:51:03.822Z,10.66
2018-09-22T03:52:03.812Z,10.78
2018-09-22T03:53:03.797Z,10.70
2018-09-22T03:54:03.784Z,10.68
2018-09-22T03:55:03.768Z,10.71
2018-09-22T03:56:03.763Z,10.67
2018-09-22T03:57:03.753Z,10.70
2018-09-22T03:58:03.734Z,10.64
2018-09-22T03:59:03.722Z,10.74
2018-09-22T04:00:03.719Z,10.81
2018-09-22T04:01:03.698Z,10.81
2018-09-22T04:02:03.687Z,10.81
2018-09-22T04:03:03.671Z,10.86
2018-09-22T04:04:03.663Z,10.82
2018-09-22T04:05:03.648Z,10.89
2018-09-22T04:06:03.636Z,10.84
2018-09-22T04:07:03.623Z,10.88
2018-09-22T04:08:03.619Z,10.85
2018-09-22T04:09:03.603Z,10.82
2018-09-22T04:10:03.590Z,10.92
2018-09-22T04:11:03.580Z,11.04
2018-09-22T04:12:03.567Z,11.06
2018-09-22T04:13:03.554Z,11.04
2018-09-22T04:14:03.541Z,11.04
2018-09-22T04:15:03.529Z,11.04
2018-09-22T04:16:03.517Z,11.04
2018-09-22T04:17:03.505Z,10.92
2018-09-22T04:18:03.489Z,10.88
2018-09-22T04:19:03.482Z,10.85
2018-09-22T04:20:03.468Z,10.85
2018-09-22T04:21:03.452Z,10.79
2018-09-22T04:22:03.442Z,10.91
2018-09-22T04:23:03.430Z,10.81
2018-09-22T04:24:03.422Z,10.76
2018-09-22T04:25:03.409Z,10.79
2018-09-22T04:26:03.395Z,10.84
2018-09-22T04:27:03.383Z,10.89
2018-09-22T04:28:03.371Z,10.92
2018-09-22T04:29:03.357Z,10.96
2018-09-22T04:30:03.349Z,10.91
2018-09-22T04:31:03.337Z,10.82
2018-09-22T04:32:03.325Z,10.63
2018-09-22T04:33:03.313Z,10.60
2018-09-22T04:34:03.302Z,10.61
2018-09-22T04:35:03.289Z,10.55
2018-09-22T04:36:03.273Z,10.45
2018-09-22T04:37:03.265Z,10.42
2018-09-22T04:38:03.252Z,10.42
2018-09-22T04:39:03.240Z,10.56
2018-09-22T04:40:03.227Z,10.55
2018-09-22T04:41:03.218Z,10.47
2018-09-22T04:42:03.201Z,10.53
2018-09-22T04:43:03.191Z,10.53
2018-09-22T04:44:03.177Z,10.52
2018-09-22T04:45:03.171Z,10.53
2018-09-22T04:46:03.164Z,10.61
2018-09-22T04:47:03.146Z,10.67
2018-09-22T04:48:03.126Z,10.66
2018-09-22T04:49:03.119Z,10.68
2018-09-22T04:50:03.101Z,10.78
2018-09-22T04:51:03.092Z,10.84
2018-09-22T04:52:03.081Z,10.86
2018-09-22T04:53:03.063Z,10.91
2018-09-22T04:54:03.056Z,10.97
2018-09-22T04:55:03.044Z,10.99
2018-09-22T04:56:03.031Z,11.09
2018-09-22T04:57:03.021Z,11.14
2018-09-22T04:58:03.014Z,11.07
2018-09-22T04:59:02.997Z,11.07
2018-09-22T05:00:02.982Z,11.10
2018-09-22T05:01:02.973Z,11.11
2018-09-22T05:02:02.960Z,11.10
2018-09-22T05:03:02.954Z,11.17
2018-09-22T05:04:02.941Z,11.18
2018-09-22T05:05:02.923Z,11.14
2018-09-22T05:06:02.911Z,11.24
2018-09-22T05:07:02.893Z,11.29
2018-09-22T05:08:02.889Z,11.25
2018-09-22T05:09:02.879Z,11.28
2018-09-22T05:10:02.865Z,11.25
2018-09-22T05:11:02.855Z,11.28
2018-09-22T05:12:02.839Z,11.19
2018-09-22T05:13:02.842Z,11.24
2018-09-22T05:14:02.816Z,11.28
2018-09-22T05:15:02.805Z,11.25
2018-09-22T05:16:02.792Z,11.33
2018-09-22T05:17:02.864Z,11.33
2018-09-22T05:18:02.769Z,11.40
2018-09-22T05:19:02.757Z,11.40
2018-09-22T05:20:02.744Z,11.44
2018-09-22T05:21:02.734Z,11.39
2018-09-22T05:22:02.717Z,11.47
2018-09-22T05:23:02.713Z,11.55
2018-09-22T05:24:02.694Z,11.52
2018-09-22T05:25:02.681Z,11.60
2018-09-22T05:26:02.671Z,11.65
2018-09-22T05:27:02.661Z,11.57
2018-09-22T05:28:02.644Z,11.54
2018-09-22T05:29:02.635Z,11.52
2018-09-22T05:30:02.621Z,11.61
2018-09-22T05:31:02.613Z,11.54
2018-09-22T05:32:02.595Z,11.55
2018-09-22T05:33:02.583Z,11.58
2018-09-22T05:34:02.575Z,11.55
2018-09-22T05:35:02.563Z,11.60
2018-09-22T05:36:02.556Z,11.57
2018-09-22T05:37:02.539Z,11.51
2018-09-22T05:38:02.538Z,11.46
2018-09-22T05:39:02.514Z,11.51
2018-09-22T05:40:02.505Z,11.44
2018-09-22T05:41:02.487Z,11.37
2018-09-22T05:42:02.489Z,11.36
2018-09-22T05:43:02.469Z,11.29
2018-09-22T05:44:02.455Z,11.24
2018-09-22T05:45:02.449Z,11.24
2018-09-22T05:46:02.435Z,11.24
2018-09-22T05:47:02.421Z,11.21
2018-09-22T05:48:02.409Z,11.24
2018-09-22T05:49:02.394Z,11.18
2018-09-22T05:50:02.387Z,11.11
2018-09-22T05:51:02.376Z,11.06
2018-09-22T05:52:02.364Z,10.97
2018-09-22T05:53:02.351Z,11.04
2018-09-22T05:54:02.337Z,10.97
2018-09-22T05:55:02.347Z,11.03
2018-09-22T05:56:02.313Z,11.17
2018-09-22T05:57:02.309Z,11.14
2018-09-22T05:58:02.334Z,11.19
2018-09-22T05:59:02.277Z,11.32
2018-09-22T06:00:02.267Z,11.32
2018-09-22T06:01:02.252Z,11.39
2018-09-22T06:02:02.246Z,11.36
2018-09-22T06:03:02.224Z,11.37
2018-09-22T06:04:02.274Z,11.47
2018-09-22T06:05:02.206Z,11.49
2018-09-22T06:06:02.192Z,11.46
2018-09-22T06:07:02.184Z,11.58
2018-09-22T06:08:02.169Z,11.57
2018-09-22T06:09:02.158Z,11.52
2018-09-22T06:10:02.146Z,11.55
2018-09-22T06:11:02.135Z,11.60
2018-09-22T06:12:02.121Z,11.72
2018-09-22T06:13:02.109Z,11.80
2018-09-22T06:14:02.100Z,11.76
2018-09-22T06:15:02.086Z,11.79
2018-09-22T06:16:02.073Z,11.64
2018-09-22T06:17:02.070Z,11.72
2018-09-22T06:18:02.047Z,11.64
2018-09-22T06:19:02.040Z,11.54
2018-09-22T06:20:02.027Z,11.52
2018-09-22T06:21:02.015Z,11.46
2018-09-22T06:22:02.007Z,11.44
2018-09-22T06:23:02.031Z,11.39
2018-09-22T06:24:01.985Z,11.36
2018-09-22T06:25:01.965Z,11.39
2018-09-22T06:26:01.952Z,11.33
2018-09-22T06:27:01.940Z,11.37
2018-09-22T06:28:01.929Z,11.39
2018-09-22T06:29:01.915Z,11.40
2018-09-22T06:30:01.909Z,11.40
2018-09-22T06:31:01.893Z,11.49
2018-09-22T06:32:01.886Z,11.54
2018-09-22T06:33:01.870Z,11.57
2018-09-22T06:34:01.861Z,11.55
2018-09-22T06:35:01.848Z,11.69
2018-09-22T06:36:01.839Z,11.65
2018-09-22T06:37:01.833Z,11.76
2018-09-22T06:38:01.817Z,11.80
2018-09-22T06:39:01.797Z,11.85
2018-09-22T06:40:01.791Z,11.80
2018-09-22T06:41:01.792Z,11.90
2018-09-22T06:42:01.762Z,11.90
2018-09-22T06:43:01.753Z,11.95
2018-09-22T06:44:01.743Z,11.98
2018-09-22T06:45:01.731Z,12.02
2018-09-22T06:46:01.763Z,12.05
2018-09-22T06:47:01.705Z,12.05
2018-09-22T06:48:01.696Z,12.01
2018-09-22T06:49:01.685Z,12.10
2018-09-22T06:50:01.675Z,12.12
2018-09-22T06:51:01.660Z,12.17
2018-09-22T06:52:01.648Z,12.16
2018-09-22T06:53:01.637Z,12.14
2018-09-22T06:54:01.630Z,12.17
2018-09-22T06:55:01.612Z,12.14
2018-09-22T06:56:01.601Z,12.23
2018-09-22T06:57:01.594Z,12.21
2018-09-22T06:58:01.577Z,12.28
2018-09-22T06:59:01.565Z,12.20
2018-09-22T07:00:01.553Z,12.29
2018-09-22T07:01:01.537Z,12.35
2018-09-22T07:02:01.534Z,12.29
2018-09-22T07:03:01.521Z,12.31
2018-09-22T07:04:01.507Z,12.38
2018-09-22T07:05:01.491Z,12.32
2018-09-22T07:06:01.489Z,12.20
2018-09-22T07:07:01.472Z,12.09
2018-09-22T07:08:01.457Z,11.99
2018-09-22T07:09:01.449Z,12.01
2018-09-22T07:10:01.441Z,11.96
2018-09-22T07:11:01.427Z,11.91
2018-09-22T07:12:01.423Z,11.86
2018-09-22T07:13:01.401Z,11.76
2018-09-22T07:14:01.398Z,11.70
2018-09-22T07:15:01.386Z,11.76
2018-09-22T07:16:01.361Z,11.61
2018-09-22T07:17:01.353Z,11.58
2018-09-22T07:18:01.359Z,11.55
2018-09-22T07:19:01.335Z,11.51
2018-09-22T07:20:01.320Z,11.47
2018-09-22T07:21:01.306Z,11.42
2018-09-22T07:22:01.297Z,11.52
2018-09-22T07:23:01.281Z,11.42
2018-09-22T07:24:01.272Z,11.49
2018-09-22T07:25:01.262Z,11.42
2018-09-22T07:26:01.250Z,11.57
2018-09-22T07:27:01.244Z,11.57
2018-09-22T07:28:01.230Z,11.58
2018-09-22T07:29:01.220Z,11.54
2018-09-22T07:30:01.207Z,11.62
2018-09-22T07:31:01.321Z,11.76
2018-09-22T07:32:01.181Z,11.80
2018-09-22T07:33:01.167Z,11.83
2018-09-22T07:34:01.152Z,11.94
2018-09-22T07:35:01.141Z,12.01
2018-09-22T07:36:01.133Z,11.94
2018-09-22T07:37:01.126Z,11.96
2018-09-22T07:38:01.110Z,12.07
2018-09-22T07:39:01.100Z,12.16
2018-09-22T07:40:01.084Z,12.20
2018-09-22T07:41:01.072Z,12.32
2018-09-22T07:42:01.059Z,12.41
2018-09-22T07:43:01.053Z,12.29
2018-09-22T07:44:01.036Z,12.38
2018-09-22T07:45:01.025Z,12.37
2018-09-22T07:46:01.022Z,12.31
2018-09-22T07:47:01.001Z,12.32
2018-09-22T07:48:00.985Z,12.37
2018-09-22T07:49:00.993Z,12.32
2018-09-22T07:50:00.965Z,12.24
2018-09-22T07:51:00.958Z,12.23
2018-09-22T07:52:00.947Z,12.12
2018-09-22T07:53:00.939Z,12.05
2018-09-22T07:54:00.918Z,11.98
2018-09-22T07:55:00.912Z,12.07
2018-09-22T07:56:00.903Z,11.96
2018-09-22T07:57:00.890Z,12.01
2018-09-22T07:58:00.871Z,12.04
2018-09-22T07:59:00.883Z,12.07
2018-09-22T08:00:00.851Z,12.04
2018-09-22T08:01:00.850Z,11.99
2018-09-22T08:02:00.827Z,12.01
2018-09-22T08:03:00.823Z,12.01
2018-09-22T08:04:00.805Z,12.05
2018-09-22T08:05:00.790Z,12.13
2018-09-22T08:06:00.784Z,12.13
2018-09-22T08:07:00.770Z,12.14
2018-09-22T08:08:00.803Z,12.13
2018-09-22T08:09:00.752Z,12.21
2018-09-22T08:10:00.739Z,12.24
2018-09-22T08:11:00.725Z,12.45
2018-09-22T08:12:00.711Z,12.46
2018-09-22T08:13:00.700Z,12.64
2018-09-22T08:14:00.692Z,12.85
2018-09-22T08:15:00.684Z,12.86
2018-09-22T08:16:00.670Z,12.86
2018-09-22T08:17:00.651Z,13.05
2018-09-22T08:18:00.641Z,13.11
2018-09-22T08:19:00.629Z,13.26
2018-09-22T08:20:00.620Z,13.25
2018-09-22T08:21:00.608Z,13.38
2018-09-22T08:22:00.594Z,13.23
2018-09-22T08:23:00.602Z,13.42
2018-09-22T08:24:00.579Z,13.59
2018-09-22T08:25:00.567Z,13.67
2018-09-22T08:26:00.546Z,13.77
2018-09-22T08:27:00.540Z,13.78
2018-09-22T08:28:00.530Z,13.92
2018-09-22T08:29:00.519Z,14.04
2018-09-22T08:30:00.506Z,14.22
2018-09-22T08:31:00.491Z,14.22
2018-09-22T08:32:00.489Z,14.21
2018-09-22T08:33:00.476Z,14.15
2018-09-22T08:34:00.460Z,14.25
2018-09-22T08:35:00.452Z,14.21
2018-09-22T08:36:00.466Z,14.21
2018-09-22T08:37:00.677Z,14.18
2018-09-22T08:38:00.418Z,14.22
2018-09-22T08:39:00.408Z,14.24
2018-09-22T08:40:00.399Z,14.21
2018-09-22T08:41:00.386Z,14.07
2018-09-22T08:42:00.380Z,14.07
2018-09-22T08:43:00.366Z,13.99
2018-09-22T08:44:00.394Z,14.07
2018-09-22T08:45:00.374Z,14.27
2018-09-22T08:46:00.331Z,14.33
2018-09-22T08:47:00.323Z,14.51
2018-09-22T08:48:00.307Z,14.60
2018-09-22T08:49:00.294Z,14.70
2018-09-22T08:50:00.306Z,14.80
2018-09-22T08:51:00.293Z,14.96
2018-09-22T08:52:00.272Z,14.91
2018-09-22T08:53:00.256Z,14.99
2018-09-22T08:54:00.249Z,14.95
2018-09-22T08:55:00.240Z,14.96
2018-09-22T08:56:00.225Z,14.95
2018-09-22T08:57:00.215Z,15.03
2018-09-22T08:58:00.232Z,15.17
2018-09-22T08:59:00.199Z,15.19
2018-09-22T09:00:00.184Z,15.21
2018-09-22T09:01:00.173Z,15.17
2018-09-22T09:02:00.161Z,15.19
2018-09-22T09:03:00.153Z,15.11
2018-09-22T09:04:00.145Z,14.98
2018-09-22T09:05:00.183Z,14.81
2018-09-22T09:06:00.124Z,14.70
2018-09-22T09:07:00.111Z,14.58
2018-09-22T09:08:00.104Z,14.46
2018-09-22T09:09:00.086Z,14.37
2018-09-22T09:10:00.080Z,14.27
2018-09-22T09:11:00.070Z,14.20
2018-09-22T09:12:00.063Z,14.04
2018-09-22T09:13:00.047Z,13.95
2018-09-22T09:14:00.074Z,13.85
2018-09-22T09:15:00.032Z,13.77
2018-09-22T09:16:00.015Z,13.79
2018-09-22T09:17:00.019Z,13.54
2018-09-22T09:17:59.997Z,13.45
2018-09-22T09:18:59.987Z,13.52
2018-09-22T09:19:59.981Z,13.46
2018-09-22T09:20:59.968Z,13.42
2018-09-22T09:21:59.960Z,13.51
2018-09-22T09:22:59.945Z,13.52
2018-09-22T09:23:59.934Z,13.41
2018-09-22T09:24:59.918Z,13.54
2018-09-22T09:25:59.915Z,13.49
2018-09-22T09:26:59.906Z,13.45
2018-09-22T09:27:59.882Z,13.32
2018-09-22T09:28:59.879Z,13.41
2018-09-22T09:29:59.867Z,13.44
2018-09-22T09:30:59.857Z,13.39
2018-09-22T09:31:59.845Z,13.44
2018-09-22T09:32:59.837Z,13.45
2018-09-22T09:33:59.823Z,13.51
2018-09-22T09:34:59.814Z,13.57
2018-09-22T09:35:59.805Z,13.48
2018-09-22T09:36:59.795Z,13.46
2018-09-22T09:37:59.789Z,13.45
2018-09-22T09:38:59.780Z,13.44
2018-09-22T09:39:59.758Z,13.44
2018-09-22T09:40:59.749Z,13.38
2018-09-22T09:41:59.735Z,13.42
2018-09-22T09:42:59.731Z,13.46
2018-09-22T09:43:59.727Z,13.57
2018-09-22T09:44:59.705Z,13.57
2018-09-22T09:45:59.692Z,13.54
2018-09-22T09:46:59.684Z,13.63
2018-09-22T09:47:59.673Z,13.64
2018-09-22T09:48:59.662Z,13.64
2018-09-22T09:49:59.649Z,13.81
2018-09-22T09:50:59.640Z,13.79
2018-09-22T09:51:59.629Z,13.81
2018-09-22T09:52:59.618Z,13.78
2018-09-22T09:53:59.606Z,13.91
2018-09-22T09:54:59.683Z,13.85
2018-09-22T09:55:59.586Z,13.96
2018-09-22T09:56:59.576Z,14.03
2018-09-22T09:57:59.571Z,14.10
2018-09-22T09:58:59.550Z,14.18
2018-09-22T09:59:59.547Z,14.21
2018-09-22T10:00:59.529Z,14.22
2018-09-22T10:01:59.519Z,14.28
2018-09-22T10:02:59.505Z,14.18
2018-09-22T10:03:59.500Z,14.15
2018-09-22T10:04:59.488Z,14.20
2018-09-22T10:05:59.471Z,14.20
2018-09-22T10:06:59.467Z,14.24
2018-09-22T10:07:59.458Z,14.27
2018-09-22T10:08:59.443Z,14.39
2018-09-22T10:09:59.437Z,14.46
2018-09-22T10:10:59.421Z,14.43
2018-09-22T10:11:59.410Z,14.45
2018-09-22T10:12:59.403Z,14.40
2018-09-22T10:13:59.388Z,14.40
2018-09-22T10:14:59.379Z,14.39
2018-09-22T10:15:59.366Z,14.46
2018-09-22T10:16:59.356Z,14.61
2018-09-22T10:17:59.349Z,14.62
2018-09-22T10:18:59.336Z,14.62
2018-09-22T10:19:59.367Z,14.69
2018-09-22T10:20:59.319Z,14.69
2018-09-22T10:21:59.310Z,14.73
2018-09-22T10:22:59.295Z,14.75
2018-09-22T10:23:59.284Z,14.70
2018-09-22T10:24:59.272Z,14.73
2018-09-22T10:25:59.264Z,14.78
2018-09-22T10:26:59.254Z,14.92
2018-09-22T10:27:59.293Z,15.02
2018-09-22T10:28:59.229Z,15.16
2018-09-22T10:29:59.223Z,15.23
2018-09-22T10:30:59.209Z,15.34
2018-09-22T10:31:59.199Z,15.39
2018-09-22T10:32:59.199Z,15.56
2018-09-22T10:33:59.180Z,15.51
2018-09-22T10:34:59.164Z,15.53
2018-09-22T10:35:59.158Z,15.39
2018-09-22T10:36:59.146Z,15.44
2018-09-22T10:37:59.137Z,15.50
2018-09-22T10:38:59.131Z,15.60
2018-09-22T10:39:59.111Z,15.67
2018-09-22T10:40:59.105Z,15.64
2018-09-22T10:41:59.099Z,15.67
2018-09-22T10:42:59.085Z,15.76
2018-09-22T10:43:59.079Z,15.87
2018-09-22T10:44:59.066Z,15.86
2018-09-22T10:45:59.058Z,15.87
2018-09-22T10:46:59.043Z,15.72
2018-09-22T10:47:59.036Z,15.89
2018-09-22T10:48:59.029Z,15.90
2018-09-22T10:49:59.017Z,16.05
2018-09-22T10:50:58.999Z,16.08
2018-09-22T10:51:58.997Z,16.24
2018-09-22T10:52:59.041Z,16.38
2018-09-22T10:53:58.975Z,16.38
2018-09-22T10:54:58.968Z,16.46
2018-09-22T10:55:58.960Z,16.46
2018-09-22T10:56:58.943Z,16.71
2018-09-22T10:57:58.940Z,16.82
2018-09-22T10:58:58.928Z,16.97
2018-09-22T10:59:58.918Z,17.01
2018-09-22T11:00:58.906Z,17.19
2018-09-22T11:01:58.898Z,17.28
2018-09-22T11:02:58.890Z,17.36
2018-09-22T11:03:58.879Z,17.44
2018-09-22T11:04:58.866Z,17.38
2018-09-22T11:05:58.855Z,17.31
2018-09-22T11:06:58.851Z,17.33
2018-09-22T11:07:58.839Z,17.36
2018-09-22T11:08:58.828Z,17.31
2018-09-22T11:09:58.818Z,17.26
2018-09-22T11:10:58.815Z,17.34
2018-09-22T11:11:58.811Z,17.34
2018-09-22T11:12:58.789Z,17.33
2018-09-22T11:13:58.787Z,17.38
2018-09-22T11:14:58.773Z,17.51
2018-09-22T11:15:58.767Z,17.63
2018-09-22T11:16:58.758Z,17.78
2018-09-22T11:17:58.747Z,17.75
2018-09-22T11:18:58.739Z,17.81
2018-09-22T11:19:58.728Z,17.75
2018-09-22T11:20:58.726Z,17.64
2018-09-22T11:21:58.713Z,17.56
2018-09-22T11:22:58.710Z,17.56
2018-09-22T11:23:58.697Z,17.56
2018-09-22T11:24:58.685Z,17.52
2018-09-22T11:25:58.676Z,17.31
2018-09-22T11:26:58.723Z,17.18
2018-09-22T11:27:58.660Z,17.19
2018-09-22T11:28:58.647Z,17.28
2018-09-22T11:29:58.639Z,17.30
2018-09-22T11:30:58.626Z,17.41
2018-09-22T11:31:58.623Z,17.43
2018-09-22T11:32:58.615Z,17.43
2018-09-22T11:33:58.608Z,17.54
2018-09-22T11:34:58.593Z,17.62
2018-09-22T11:35:58.591Z,17.58
2018-09-22T11:36:58.576Z,17.58
2018-09-22T11:37:58.569Z,17.79
2018-09-22T11:38:58.562Z,17.86
2018-09-22T11:39:58.552Z,17.89
2018-09-22T11:40:58.581Z,18.08
2018-09-22T11:41:58.536Z,18.08
2018-09-22T11:42:58.520Z,17.97
2018-09-22T11:43:58.513Z,18.02
2018-09-22T11:44:58.507Z,18.15
2018-09-22T11:45:58.496Z,18.26
2018-09-22T11:46:58.485Z,18.10
2018-09-22T11:47:58.483Z,18.02
2018-09-22T11:48:58.471Z,18.12
2018-09-22T11:49:58.466Z,18.15
2018-09-22T11:50:58.458Z,18.33
2018-09-22T11:51:58.447Z,18.39
2018-09-22T11:52:58.431Z,18.60
2018-09-22T11:53:58.429Z,18.66
2018-09-22T11:54:58.421Z,18.67
2018-09-22T11:55:58.407Z,18.67
2018-09-22T11:56:58.399Z,18.72
2018-09-22T11:57:58.391Z,18.84
2018-09-22T11:58:58.387Z,18.87
2018-09-22T11:59:58.377Z,18.99
2018-09-22T12:00:58.366Z,18.88
2018-09-22T12:01:58.451Z,18.69
2018-09-22T12:02:58.351Z,18.67
2018-09-22T12:03:58.357Z,18.88
2018-09-22T12:04:58.335Z,18.94
2018-09-22T12:05:58.419Z,19.06
2018-09-22T12:06:58.318Z,19.23
2018-09-22T12:07:58.308Z,19.50
2018-09-22T12:08:58.293Z,19.62
2018-09-22T12:09:58.293Z,19.73
2018-09-22T12:10:58.283Z,19.77
2018-09-22T12:11:58.276Z,19.68
2018-09-22T12:12:58.264Z,19.84
2018-09-22T12:13:58.302Z,19.99
2018-09-22T12:14:58.249Z,20.05
2018-09-22T12:15:58.242Z,20.21
2018-09-22T12:16:58.243Z,20.26
2018-09-22T12:17:58.223Z,20.24
2018-09-22T12:18:58.219Z,20.32
2018-09-22T12:19:58.213Z,20.21
2018-09-22T12:20:58.205Z,20.29
2018-09-22T12:21:58.193Z,20.39
2018-09-22T12:22:58.187Z,20.41
2018-09-22T12:23:58.221Z,20.31
2018-09-22T12:24:58.174Z,20.35
2018-09-22T12:25:58.170Z,20.43
2018-09-22T12:26:58.160Z,20.41
2018-09-22T12:27:58.150Z,20.33
2018-09-22T12:28:58.144Z,20.05
2018-09-22T12:29:58.132Z,20.03
2018-09-22T12:30:58.128Z,19.95
2018-09-22T12:31:58.153Z,19.76
2018-09-22T12:32:58.112Z,19.54
2018-09-22T12:33:58.103Z,19.39
2018-09-22T12:34:58.096Z,19.21
2018-09-22T12:35:58.092Z,19.18
2018-09-22T12:36:58.075Z,19.13
2018-09-22T12:37:58.071Z,19.26
2018-09-22T12:38:58.063Z,19.33
2018-09-22T12:39:58.059Z,19.47
2018-09-22T12:40:58.050Z,19.65
2018-09-22T12:41:58.043Z,19.99
2018-09-22T12:42:58.032Z,20.29
2018-09-22T12:43:58.028Z,20.52
2018-09-22T12:44:58.016Z,20.69
2018-09-22T12:45:58.029Z,20.88
2018-09-22T12:46:58.002Z,20.89
2018-09-22T12:47:57.995Z,20.74
2018-09-22T12:48:57.988Z,20.85
2018-09-22T12:49:57.983Z,20.94
2018-09-22T12:50:57.974Z,20.95
2018-09-22T12:51:57.966Z,20.99